createdAt,value
2023-05-15T00:02:13.248Z,100.00
2023-05-15T00:04:40.832Z,100.00
2023-05-15T00:07:07.844Z,100.00
2023-05-15T00:09:34.682Z,100.00
2023-05-15T00:12:01.574Z,100.00
2023-05-15T00:14:28.394Z,100.00
2023-05-15T00:16:55.910Z,100.00
2023-05-15T00:19:22.748Z,100.00
2023-05-15T00:21:49.617Z,100.00
2023-05-15T00:24:16.412Z,100.00
2023-05-15T00:26:43.703Z,100.00
2023-05-15T00:29:10.663Z,100.00
2023-05-15T00:31:37.549Z,100.00
2023-05-15T00:34:04.406Z,100.00
2023-05-15T00:36:31.455Z,100.00
2023-05-15T00:38:58.673Z,100.00
2023-05-15T00:41:28.876Z,100.00
2023-05-15T00:43:56.118Z,100.00
2023-05-15T00:46:24.966Z,100.00
2023-05-15T00:48:52.288Z,100.00
2023-05-15T00:51:19.155Z,100.00
2023-05-15T00:53:46.105Z,100.00
2023-05-15T00:56:13.081Z,100.00
2023-05-15T00:58:40.308Z,100.00
2023-05-15T01:01:08.505Z,100.00
2023-05-15T01:03:36.002Z,100.00
2023-05-15T01:06:03.086Z,100.00
2023-05-15T01:08:48.272Z,100.00
2023-05-15T01:11:17.069Z,100.00
2023-05-15T01:13:44.697Z,100.00
2023-05-15T01:16:11.999Z,100.00
2023-05-15T01:18:39.036Z,100.00
2023-05-15T01:21:35.124Z,100.00
2023-05-15T01:24:23.636Z,100.00
2023-05-15T01:27:14.276Z,100.00
2023-05-15T01:30:00.952Z,100.00
2023-05-15T01:32:48.203Z,100.00
2023-05-15T01:35:34.142Z,100.00
2023-05-15T01:38:33.729Z,100.00
2023-05-15T01:41:11.839Z,100.00
2023-05-15T01:43:42.930Z,100.00
2023-05-15T01:46:16.191Z,100.00
2023-05-15T01:48:45.561Z,100.00
2023-05-15T01:51:15.080Z,100.00
2023-05-15T01:53:43.990Z,100.00
2023-05-15T01:56:14.394Z,100.00
2023-05-15T01:58:43.090Z,100.00
2023-05-15T02:01:11.068Z,100.00
2023-05-15T02:03:38.433Z,100.00
2023-05-15T02:06:08.942Z,100.00
2023-05-15T02:08:36.983Z,100.00
2023-05-15T02:11:04.163Z,100.00
2023-05-15T02:13:32.324Z,100.00
2023-05-15T02:15:59.346Z,100.00
2023-05-15T02:18:26.304Z,100.00
2023-05-15T02:20:53.276Z,100.00
2023-05-15T02:23:21.994Z,100.00
2023-05-15T02:26:28.562Z,100.00
2023-05-15T02:29:11.398Z,100.00
2023-05-15T02:31:58.448Z,100.00
2023-05-15T02:35:00.473Z,100.00
2023-05-15T02:37:35.833Z,100.00
2023-05-15T02:40:07.165Z,100.00
2023-05-15T02:42:36.556Z,100.00
2023-05-15T02:45:04.765Z,100.00
2023-05-15T02:47:34.418Z,100.00
2023-05-15T02:50:03.072Z,100.00
2023-05-15T02:52:29.990Z,100.00
2023-05-15T02:54:56.805Z,100.00
2023-05-15T02:57:23.641Z,100.00
2023-05-15T02:59:50.514Z,100.00
2023-05-15T03:02:17.410Z,100.00
2023-05-15T03:04:44.340Z,100.00
2023-05-15T03:07:11.228Z,100.00
2023-05-15T03:09:38.046Z,100.00
2023-05-15T03:12:05.115Z,100.00
2023-05-15T03:14:32.030Z,100.00
2023-05-15T03:17:00.250Z,100.00
2023-05-15T03:19:27.220Z,100.00
2023-05-15T03:21:54.032Z,100.00
2023-05-15T03:24:21.577Z,100.00
2023-05-15T03:26:48.412Z,100.00
2023-05-15T03:29:15.230Z,100.00
2023-05-15T03:31:42.101Z,100.00
2023-05-15T03:34:08.938Z,100.00
2023-05-15T03:36:35.759Z,100.00
2023-05-15T03:39:02.558Z,100.00
2023-05-15T03:41:29.358Z,100.00
2023-05-15T03:43:56.205Z,100.00
2023-05-15T03:46:23.091Z,100.00
2023-05-15T03:48:49.977Z,100.00
2023-05-15T03:51:16.817Z,100.00
2023-05-15T03:53:43.658Z,100.00
2023-05-15T03:56:10.547Z,100.00
2023-05-15T03:58:37.387Z,100.00
2023-05-15T04:01:04.277Z,100.00
2023-05-15T04:03:31.129Z,100.00
2023-05-15T04:05:57.978Z,100.00
2023-05-15T04:08:24.975Z,100.00
2023-05-15T04:10:52.421Z,100.00
2023-05-15T04:13:19.248Z,100.00
2023-05-15T04:15:46.730Z,100.00
2023-05-15T04:18:13.554Z,100.00
2023-05-15T04:20:40.413Z,100.00
2023-05-15T04:23:07.292Z,100.00
2023-05-15T04:25:34.239Z,100.00
2023-05-15T04:28:01.397Z,100.00
2023-05-15T04:30:28.211Z,100.00
2023-05-15T04:32:55.068Z,100.00
2023-05-15T04:35:22.051Z,100.00
2023-05-15T04:37:48.944Z,100.00
2023-05-15T04:40:16.657Z,100.00
2023-05-15T04:42:43.819Z,100.00
2023-05-15T04:45:11.034Z,100.00
2023-05-15T04:47:38.144Z,100.00
2023-05-15T04:50:05.702Z,100.00
2023-05-15T04:52:33.019Z,100.00
2023-05-15T04:54:59.830Z,100.00
2023-05-15T04:57:26.882Z,100.00
2023-05-15T04:59:54.005Z,100.00
2023-05-15T05:02:25.610Z,100.00
2023-05-15T05:04:52.472Z,100.00
2023-05-15T05:07:19.523Z,100.00
2023-05-15T05:09:46.380Z,100.00
2023-05-15T05:12:13.304Z,100.00
2023-05-15T05:14:42.454Z,100.00
2023-05-15T05:17:09.552Z,100.00
2023-05-15T05:19:36.401Z,100.00
2023-05-15T05:22:05.871Z,100.00
2023-05-15T05:24:33.031Z,100.00
2023-05-15T05:27:00.462Z,100.00
2023-05-15T05:29:27.425Z,100.00
2023-05-15T05:31:54.278Z,100.00
2023-05-15T05:34:21.212Z,100.00
2023-05-15T05:36:48.615Z,100.00
2023-05-15T05:39:17.106Z,100.00
2023-05-15T05:41:44.484Z,100.00
2023-05-15T05:44:11.736Z,100.00
2023-05-15T05:46:38.620Z,100.00
2023-05-15T05:49:05.662Z,100.00
2023-05-15T05:51:32.569Z,100.00
2023-05-15T05:53:59.537Z,100.00
2023-05-15T05:56:26.773Z,100.00
2023-05-15T05:58:53.983Z,100.00
2023-05-15T06:01:21.342Z,100.00
2023-05-15T06:03:48.318Z,100.00
2023-05-15T06:06:15.297Z,100.00
2023-05-15T06:08:42.116Z,100.00
2023-05-15T06:11:08.938Z,100.00
2023-05-15T06:13:36.050Z,100.00
2023-05-15T06:16:02.890Z,100.00
2023-05-15T06:18:29.810Z,100.00
2023-05-15T06:20:59.011Z,100.00
2023-05-15T06:23:26.934Z,100.00
2023-05-15T06:25:53.779Z,100.00
2023-05-15T06:28:20.713Z,100.00
2023-05-15T06:30:47.562Z,100.00
2023-05-15T06:33:14.427Z,100.00
2023-05-15T06:35:41.513Z,100.00
2023-05-15T06:38:08.484Z,100.00
2023-05-15T06:40:35.546Z,100.00
2023-05-15T06:43:02.463Z,100.00
2023-05-15T06:45:29.414Z,100.00
2023-05-15T06:47:57.490Z,100.00
2023-05-15T06:50:26.079Z,100.00
2023-05-15T06:52:52.886Z,100.00
2023-05-15T06:55:19.713Z,100.00
2023-05-15T06:57:46.562Z,100.00
2023-05-15T07:00:14.504Z,100.00
2023-05-15T07:02:41.497Z,100.00
2023-05-15T07:05:10.788Z,100.00
2023-05-15T07:07:37.689Z,100.00
2023-05-15T07:10:05.145Z,100.00
2023-05-15T07:12:33.261Z,100.00
2023-05-15T07:15:00.237Z,100.00
2023-05-15T07:17:27.144Z,100.00
2023-05-15T07:19:54.011Z,100.00
2023-05-15T07:22:21.031Z,100.00
2023-05-15T07:24:47.963Z,100.00
2023-05-15T07:27:14.786Z,100.00
2023-05-15T07:29:41.585Z,100.00
2023-05-15T07:32:08.434Z,100.00
2023-05-15T07:34:35.249Z,100.00
2023-05-15T07:37:02.783Z,100.00
2023-05-15T07:39:29.650Z,100.00
2023-05-15T07:41:56.685Z,100.00
2023-05-15T07:44:23.542Z,100.00
2023-05-15T07:46:50.403Z,100.00
2023-05-15T07:49:17.249Z,100.00
2023-05-15T07:51:44.057Z,100.00
2023-05-15T07:54:11.081Z,99.61
2023-05-15T07:56:38.020Z,98.37
2023-05-15T07:59:04.950Z,99.14
2023-05-15T08:01:32.792Z,98.73
2023-05-15T08:03:59.990Z,98.67
2023-05-15T08:06:26.927Z,96.68
2023-05-15T08:08:53.807Z,97.98
2023-05-15T08:11:21.660Z,96.65
2023-05-15T08:13:48.589Z,96.66
2023-05-15T08:16:15.737Z,99.97
2023-05-15T08:18:44.137Z,91.25
2023-05-15T08:21:11.438Z,92.50
2023-05-15T08:23:38.246Z,92.87
2023-05-15T08:26:05.386Z,92.54
2023-05-15T08:28:33.495Z,93.59
2023-05-15T08:31:00.679Z,90.66
2023-05-15T08:33:27.526Z,93.48
2023-05-15T08:35:54.363Z,91.45
2023-05-15T08:38:22.719Z,88.46
2023-05-15T08:40:53.249Z,86.20
2023-05-15T08:43:22.944Z,89.36
2023-05-15T08:45:50.357Z,85.23
2023-05-15T08:48:21.335Z,86.08
2023-05-15T08:50:49.841Z,85.01
2023-05-15T08:53:16.922Z,82.77
2023-05-15T08:55:43.985Z,84.92
2023-05-15T08:58:11.092Z,82.01
2023-05-15T09:00:38.079Z,80.76
2023-05-15T09:03:05.590Z,81.83
2023-05-15T09:05:32.573Z,80.00
2023-05-15T09:08:03.400Z,78.55
2023-05-15T09:10:31.014Z,83.82
2023-05-15T09:12:58.795Z,81.42
2023-05-15T09:15:25.981Z,84.52
2023-05-15T09:18:01.985Z,82.25
2023-05-15T09:20:37.443Z,85.41
2023-05-15T09:23:06.495Z,83.41
2023-05-15T09:25:44.910Z,84.43
2023-05-15T09:28:30.615Z,78.09
2023-05-15T09:31:03.660Z,68.63
2023-05-15T09:33:33.043Z,69.25
2023-05-15T09:36:00.288Z,70.45
2023-05-15T09:38:27.152Z,71.24
2023-05-15T09:41:06.794Z,71.95
2023-05-15T09:43:41.302Z,70.69
2023-05-15T09:46:09.766Z,68.59
2023-05-15T09:48:36.739Z,70.15
2023-05-15T09:51:05.895Z,71.61
2023-05-15T09:53:32.771Z,73.13
2023-05-15T09:55:59.636Z,76.51
2023-05-15T09:58:26.448Z,72.47
2023-05-15T10:00:53.264Z,73.10
2023-05-15T10:03:21.077Z,73.27
2023-05-15T10:05:48.195Z,72.37
2023-05-15T10:08:16.046Z,73.41
2023-05-15T10:10:43.979Z,72.06
2023-05-15T10:13:11.710Z,72.45
2023-05-15T10:15:39.949Z,72.55
2023-05-15T10:18:08.381Z,73.09
2023-05-15T10:20:36.111Z,78.79
2023-05-15T10:23:06.640Z,78.03
2023-05-15T10:25:42.309Z,78.70
2023-05-15T10:28:11.947Z,77.40
2023-05-15T10:30:39.253Z,73.00
2023-05-15T10:33:08.364Z,77.54
2023-05-15T10:35:36.509Z,78.18
2023-05-15T10:38:07.220Z,81.33
2023-05-15T10:40:38.336Z,81.18
2023-05-15T10:43:06.439Z,77.10
2023-05-15T10:45:35.083Z,78.82
2023-05-15T10:48:03.668Z,77.24
2023-05-15T10:50:30.706Z,79.36
2023-05-15T10:52:57.530Z,76.26
2023-05-15T10:55:24.473Z,75.97
2023-05-15T10:57:51.969Z,75.03
2023-05-15T11:00:27.999Z,71.15
2023-05-15T11:02:58.820Z,77.24
2023-05-15T11:05:26.609Z,78.39
2023-05-15T11:08:15.419Z,77.22
2023-05-15T11:10:42.358Z,76.85
2023-05-15T11:13:09.310Z,78.18
2023-05-15T11:15:47.333Z,76.00
2023-05-15T11:18:15.726Z,75.29
2023-05-15T11:20:55.059Z,74.43
2023-05-15T11:23:23.206Z,74.54
2023-05-15T11:25:55.182Z,71.96
2023-05-15T11:28:24.244Z,70.89
2023-05-15T11:30:53.299Z,71.26
2023-05-15T11:33:21.279Z,66.98
2023-05-15T11:35:49.038Z,66.10
2023-05-15T11:38:25.088Z,69.06
2023-05-15T11:40:58.814Z,69.41
2023-05-15T11:43:36.603Z,70.63
2023-05-15T11:46:04.759Z,74.92
2023-05-15T11:48:36.348Z,76.34
2023-05-15T11:51:04.600Z,79.71
2023-05-15T11:53:33.194Z,82.36
2023-05-15T11:56:00.195Z,84.84
2023-05-15T11:58:27.192Z,85.89
2023-05-15T12:00:54.374Z,85.96
2023-05-15T12:03:36.483Z,87.73
2023-05-15T12:06:04.289Z,89.43
2023-05-15T12:08:36.437Z,90.32
2023-05-15T12:11:04.503Z,91.68
2023-05-15T12:13:33.373Z,92.80
2023-05-15T12:16:04.891Z,94.57
2023-05-15T12:18:33.228Z,93.65
2023-05-15T12:21:00.972Z,94.79
2023-05-15T12:23:28.836Z,95.19
2023-05-15T12:26:01.408Z,96.05
2023-05-15T12:28:30.478Z,95.38
2023-05-15T12:30:58.202Z,97.03
2023-05-15T12:33:25.343Z,96.23
2023-05-15T12:36:00.865Z,95.06
2023-05-15T12:38:28.270Z,96.81
2023-05-15T12:40:55.435Z,100.00
2023-05-15T12:43:25.358Z,100.00
2023-05-15T12:45:54.753Z,100.00
2023-05-15T12:48:22.405Z,100.00
2023-05-15T12:50:50.253Z,100.00
2023-05-15T12:53:17.829Z,100.00
2023-05-15T12:55:46.881Z,100.00
2023-05-15T12:58:18.870Z,97.73
2023-05-15T13:00:47.122Z,96.67
2023-05-15T13:03:14.967Z,95.45
2023-05-15T13:05:45.851Z,95.34
2023-05-15T13:08:18.374Z,100.00
2023-05-15T13:10:46.920Z,100.00
2023-05-15T13:13:14.316Z,100.00
2023-05-15T13:15:44.842Z,94.04
2023-05-15T13:18:20.526Z,92.61
2023-05-15T13:20:51.528Z,97.38
2023-05-15T13:23:21.080Z,96.61
2023-05-15T13:25:48.144Z,92.10
2023-05-15T13:28:15.421Z,92.85
2023-05-15T13:30:42.801Z,92.52
2023-05-15T13:33:12.569Z,90.41
2023-05-15T13:35:41.377Z,88.11
2023-05-15T13:38:11.105Z,82.78
2023-05-15T13:40:38.429Z,87.59
2023-05-15T13:43:08.843Z,88.29
2023-05-15T13:45:35.885Z,86.52
2023-05-15T13:48:03.143Z,84.73
2023-05-15T13:50:30.057Z,88.93
2023-05-15T13:52:56.895Z,89.49
2023-05-15T13:55:24.121Z,88.49
2023-05-15T13:57:51.693Z,89.34
2023-05-15T14:00:19.894Z,91.46
2023-05-15T14:02:46.837Z,87.46
2023-05-15T14:05:15.590Z,88.62
2023-05-15T14:07:42.842Z,87.26
2023-05-15T14:10:10.641Z,87.73
2023-05-15T14:12:38.247Z,89.34
2023-05-15T14:15:06.070Z,86.98
2023-05-15T14:17:33.032Z,83.90
2023-05-15T14:19:59.912Z,86.36
2023-05-15T14:22:26.772Z,82.47
2023-05-15T14:24:54.037Z,80.05
2023-05-15T14:27:21.079Z,79.10
2023-05-15T14:29:49.502Z,75.91
2023-05-15T14:32:17.131Z,72.68
2023-05-15T14:34:44.820Z,71.65
2023-05-15T14:37:11.857Z,69.35
2023-05-15T14:39:38.857Z,69.28
2023-05-15T14:42:06.496Z,66.97
2023-05-15T14:44:34.840Z,68.79
2023-05-15T14:47:13.030Z,67.38
2023-05-15T14:49:40.761Z,69.18
2023-05-15T14:52:12.439Z,69.77
2023-05-15T14:54:40.142Z,70.42
2023-05-15T14:57:07.952Z,70.56
2023-05-15T14:59:34.894Z,70.56
2023-05-15T15:02:02.131Z,72.26
2023-05-15T15:04:34.226Z,73.00
2023-05-15T15:07:04.814Z,73.46
2023-05-15T15:09:31.999Z,73.60
2023-05-15T15:11:58.924Z,74.81
2023-05-15T15:14:25.820Z,74.93
2023-05-15T15:16:52.714Z,76.53
2023-05-15T15:19:20.406Z,74.23
2023-05-15T15:21:47.675Z,73.79
2023-05-15T15:24:14.863Z,73.06
2023-05-15T15:26:41.683Z,74.97
2023-05-15T15:29:08.493Z,73.70
2023-05-15T15:31:35.394Z,73.58
2023-05-15T15:34:05.285Z,77.08
2023-05-15T15:36:32.493Z,74.01
2023-05-15T15:38:59.621Z,74.35
2023-05-15T15:41:26.503Z,76.13
2023-05-15T15:43:54.031Z,73.74
2023-05-15T15:46:21.075Z,74.19
2023-05-15T15:48:48.913Z,75.60
2023-05-15T15:51:16.452Z,75.33
2023-05-15T15:53:43.298Z,75.78
2023-05-15T15:56:10.137Z,75.53
2023-05-15T15:58:36.982Z,76.02
2023-05-15T16:01:03.989Z,75.42
2023-05-15T16:03:31.625Z,74.45
2023-05-15T16:06:00.049Z,75.67
2023-05-15T16:08:27.378Z,77.18
2023-05-15T16:10:55.064Z,79.13
2023-05-15T16:13:21.952Z,82.19
2023-05-15T16:15:48.798Z,78.93
2023-05-15T16:18:15.645Z,80.66
2023-05-15T16:20:42.538Z,82.78
2023-05-15T16:23:11.791Z,82.51
2023-05-15T16:25:38.673Z,82.11
2023-05-15T16:28:05.745Z,81.32
2023-05-15T16:30:47.365Z,81.82
2023-05-15T16:33:17.759Z,77.53
2023-05-15T16:35:45.209Z,76.42
2023-05-15T16:38:12.688Z,76.65
2023-05-15T16:40:39.658Z,77.00
2023-05-15T16:43:06.504Z,79.43
2023-05-15T16:45:33.480Z,80.37
2023-05-15T16:48:00.466Z,81.23
2023-05-15T16:50:27.707Z,82.00
2023-05-15T16:52:54.800Z,79.58
2023-05-15T16:55:21.719Z,79.10
2023-05-15T16:57:48.611Z,77.37
2023-05-15T17:00:16.893Z,79.12
2023-05-15T17:02:44.426Z,78.69
2023-05-15T17:05:12.051Z,78.34
2023-05-15T17:07:39.320Z,80.65
2023-05-15T17:10:08.212Z,81.44
2023-05-15T17:12:35.611Z,81.22
2023-05-15T17:15:03.676Z,80.43
2023-05-15T17:17:30.595Z,82.80
2023-05-15T17:19:58.930Z,82.46
2023-05-15T17:22:26.237Z,84.29
2023-05-15T17:24:53.141Z,83.74
2023-05-15T17:27:20.690Z,84.79
2023-05-15T17:29:48.011Z,84.24
2023-05-15T17:32:16.295Z,84.96
2023-05-15T17:34:43.492Z,84.15
2023-05-15T17:37:11.195Z,82.26
2023-05-15T17:39:38.137Z,82.54
2023-05-15T17:42:05.396Z,82.63
2023-05-15T17:44:32.262Z,81.91
2023-05-15T17:46:59.468Z,81.71
2023-05-15T17:49:26.537Z,82.82
2023-05-15T17:51:54.191Z,82.44
2023-05-15T17:54:21.108Z,84.03
2023-05-15T17:56:48.698Z,85.16
2023-05-15T17:59:15.793Z,86.03
2023-05-15T18:01:42.715Z,86.57
2023-05-15T18:04:09.768Z,86.36
2023-05-15T18:06:36.888Z,86.24
2023-05-15T18:09:05.312Z,86.48
2023-05-15T18:11:32.288Z,86.09
2023-05-15T18:13:59.690Z,87.12
2023-05-15T18:16:26.836Z,87.54
2023-05-15T18:18:53.909Z,88.00
2023-05-15T18:21:20.893Z,88.74
2023-05-15T18:23:47.698Z,89.57
2023-05-15T18:26:14.555Z,89.37
2023-05-15T18:28:41.425Z,90.34
2023-05-15T18:31:08.846Z,91.51
2023-05-15T18:33:35.823Z,90.82
2023-05-15T18:36:03.675Z,90.78
2023-05-15T18:38:31.537Z,91.78
2023-05-15T18:40:58.352Z,92.22
2023-05-15T18:43:25.168Z,93.66
2023-05-15T18:45:52.025Z,93.56
2023-05-15T18:48:18.853Z,92.88
2023-05-15T18:50:45.678Z,95.18
2023-05-15T18:53:12.494Z,96.10
2023-05-15T18:55:39.576Z,95.77
2023-05-15T18:58:06.660Z,95.38
2023-05-15T19:00:38.827Z,97.56
2023-05-15T19:03:08.298Z,97.79
2023-05-15T19:05:35.308Z,98.40
2023-05-15T19:08:02.331Z,98.56
2023-05-15T19:10:29.824Z,98.76
2023-05-15T19:12:59.338Z,100.00
2023-05-15T19:15:26.406Z,100.00
2023-05-15T19:17:53.396Z,100.00
2023-05-15T19:20:21.108Z,99.51
2023-05-15T19:22:48.021Z,100.00
2023-05-15T19:25:14.971Z,100.00
2023-05-15T19:27:41.822Z,100.00
2023-05-15T19:30:10.222Z,100.00
2023-05-15T19:32:37.905Z,100.00
2023-05-15T19:35:05.879Z,100.00
2023-05-15T19:37:32.791Z,100.00
2023-05-15T19:39:59.621Z,100.00
2023-05-15T19:42:26.679Z,100.00
2023-05-15T19:44:53.586Z,100.00
2023-05-15T19:47:20.797Z,100.00
2023-05-15T19:49:47.722Z,100.00
2023-05-15T19:52:15.974Z,100.00
2023-05-15T19:54:42.837Z,100.00
2023-05-15T19:57:09.701Z,100.00
2023-05-15T19:59:36.559Z,100.00
2023-05-15T20:02:03.571Z,100.00
2023-05-15T20:04:32.708Z,100.00
2023-05-15T20:06:59.588Z,100.00
2023-05-15T20:09:26.396Z,100.00
2023-05-15T20:11:53.263Z,100.00
2023-05-15T20:14:20.162Z,100.00
2023-05-15T20:16:47.064Z,100.00
2023-05-15T20:19:14.157Z,100.00
2023-05-15T20:21:41.144Z,100.00
2023-05-15T20:24:08.195Z,100.00
2023-05-15T20:26:37.712Z,100.00
2023-05-15T20:29:04.607Z,100.00
2023-05-15T20:31:31.525Z,100.00
2023-05-15T20:33:59.317Z,100.00
2023-05-15T20:36:26.347Z,100.00
2023-05-15T20:38:53.260Z,100.00
2023-05-15T20:41:22.891Z,100.00
2023-05-15T20:43:49.985Z,100.00
2023-05-15T20:46:17.266Z,100.00
2023-05-15T20:48:44.243Z,100.00
2023-05-15T20:51:11.186Z,100.00
2023-05-15T20:53:38.050Z,100.00
2023-05-15T20:56:05.045Z,100.00
2023-05-15T20:58:31.857Z,100.00
2023-05-15T21:01:01.132Z,100.00
2023-05-15T21:03:29.216Z,100.00
2023-05-15T21:05:57.310Z,100.00
2023-05-15T21:08:24.508Z,100.00
2023-05-15T21:10:53.248Z,100.00
2023-05-15T21:13:20.120Z,100.00
2023-05-15T21:15:47.148Z,100.00
2023-05-15T21:18:14.325Z,100.00
2023-05-15T21:20:41.939Z,100.00
2023-05-15T21:23:08.929Z,100.00
2023-05-15T21:25:36.020Z,100.00
2023-05-15T21:28:03.020Z,100.00
2023-05-15T21:30:30.175Z,100.00
2023-05-15T21:32:57.078Z,100.00
2023-05-15T21:35:25.288Z,100.00
2023-05-15T21:37:52.082Z,100.00
2023-05-15T21:40:18.985Z,100.00
2023-05-15T21:42:46.110Z,100.00
2023-05-15T21:45:13.184Z,100.00
2023-05-15T21:47:40.586Z,100.00
2023-05-15T21:50:08.014Z,100.00
2023-05-15T21:52:34.904Z,100.00
2023-05-15T21:55:01.863Z,100.00
2023-05-15T21:57:29.081Z,100.00
2023-05-15T21:59:55.923Z,100.00
2023-05-15T22:02:22.871Z,100.00
2023-05-15T22:04:49.828Z,100.00
2023-05-15T22:07:16.740Z,100.00
2023-05-15T22:09:44.647Z,100.00
2023-05-15T22:12:11.618Z,100.00
2023-05-15T22:14:46.928Z,100.00
2023-05-15T22:17:19.191Z,100.00
2023-05-15T22:19:46.526Z,100.00
2023-05-15T22:22:13.956Z,100.00
2023-05-15T22:24:40.922Z,100.00
2023-05-15T22:27:07.728Z,100.00
2023-05-15T22:29:34.611Z,100.00
2023-05-15T22:32:01.550Z,100.00
2023-05-15T22:34:29.982Z,100.00
2023-05-15T22:36:57.072Z,100.00
2023-05-15T22:39:23.942Z,100.00
2023-05-15T22:41:50.813Z,100.00
2023-05-15T22:44:17.651Z,100.00
2023-05-15T22:46:44.510Z,100.00
2023-05-15T22:49:19.332Z,100.00
2023-05-15T22:51:47.100Z,100.00
2023-05-15T22:54:13.990Z,100.00
2023-05-15T22:56:40.876Z,100.00
2023-05-15T22:59:07.730Z,100.00
2023-05-15T23:01:34.586Z,100.00
2023-05-15T23:04:01.512Z,100.00
2023-05-15T23:06:28.328Z,100.00
2023-05-15T23:08:55.131Z,100.00
2023-05-15T23:11:22.213Z,100.00
2023-05-15T23:13:49.057Z,100.00
2023-05-15T23:16:16.051Z,100.00
2023-05-15T23:18:43.253Z,100.00
2023-05-15T23:21:10.152Z,100.00
2023-05-15T23:23:36.992Z,100.00
2023-05-15T23:26:03.849Z,100.00
2023-05-15T23:28:30.692Z,100.00
2023-05-15T23:30:57.578Z,100.00
2023-05-15T23:33:24.550Z,100.00
2023-05-15T23:35:52.551Z,100.00
2023-05-15T23:38:19.413Z,100.00
2023-05-15T23:40:46.222Z,100.00
2023-05-15T23:43:13.089Z,100.00
2023-05-15T23:45:39.914Z,100.00
2023-05-15T23:48:06.835Z,100.00
2023-05-15T23:50:33.683Z,100.00
2023-05-15T23:53:00.551Z,100.00
2023-05-15T23:55:27.426Z,100.00
2023-05-15T23:57:54.295Z,100.00
